SBOSBO KAJ / EFKI
Speedbird OnlineSpeedbird Online KAJ / EFKI

Kajaani Airport
02:09 3°C

Location Kajaani, Finland
Latitude: 64.285499572754
Longitude: 27.692399978638
Local Time 02:09 on 26 May 2024
UTC +3 hours (Europe/Helsinki)
Currency £1 equals EUR 1.17
METAR EFKI 252250Z AUTO 06004KT CAVOK 03/M02 Q1028
TAF
Weather As Of 26 May 2024 02:09
Description Clear sky
Wind 7 km/h from North-East (60°)
Cloud Cover 0%
Precipitation Rain: none, Snow: none
Sunrise 03:17
Sunset 22:55
NOTAM 2 active NOTAM
Rotations During the last 90 days there were
12 flights from HEL
Web Airport Website | Wikipedia
Codes IATA: KAJ
ICAO: EFKI
Altitude 147 Meter / 483 Feet
Distance 2,131 KM / 1,324 Miles
from London.
Runways
RunwayLength (m)Surface
072499Asphalt
252499Asphalt
Radio
TypeDescriptionFrequency
AFISAFIS118.1
ATISATIS114.9
Live ATC



Support Speedbird Online

© 2017-2024 Speedbird Online